sensor_id;sensor_type;location;lat;lon;timestamp;temperature;humidity
69546;SHT31;56766;52.260;20.746;2023-08-31T00:00:12;16.98;87.41
69546;SHT31;56766;52.260;20.746;2023-08-31T00:03:00;16.96;87.49
69546;SHT31;56766;52.260;20.746;2023-08-31T00:05:26;16.95;87.52
69546;SHT31;56766;52.260;20.746;2023-08-31T00:07:56;16.93;87.58
69546;SHT31;56766;52.260;20.746;2023-08-31T00:10:24;16.92;87.63
69546;SHT31;56766;52.260;20.746;2023-08-31T00:12:51;16.92;87.66
69546;SHT31;56766;52.260;20.746;2023-08-31T00:15:18;16.91;87.63
69546;SHT31;56766;52.260;20.746;2023-08-31T00:17:46;16.91;87.66
69546;SHT31;56766;52.260;20.746;2023-08-31T00:20:14;16.90;87.69
69546;SHT31;56766;52.260;20.746;2023-08-31T00:22:41;16.90;87.67
69546;SHT31;56766;52.260;20.746;2023-08-31T00:25:07;16.89;87.60
69546;SHT31;56766;52.260;20.746;2023-08-31T00:27:37;16.89;87.62
69546;SHT31;56766;52.260;20.746;2023-08-31T00:30:05;16.88;87.70
69546;SHT31;56766;52.260;20.746;2023-08-31T00:32:34;16.88;87.70
69546;SHT31;56766;52.260;20.746;2023-08-31T00:35:01;16.89;87.70
69546;SHT31;56766;52.260;20.746;2023-08-31T00:37:29;16.89;87.70
69546;SHT31;56766;52.260;20.746;2023-08-31T00:39:58;16.87;87.65
69546;SHT31;56766;52.260;20.746;2023-08-31T00:42:25;16.84;87.60
69546;SHT31;56766;52.260;20.746;2023-08-31T00:44:52;16.83;87.60
69546;SHT31;56766;52.260;20.746;2023-08-31T00:47:19;16.82;87.60
69546;SHT31;56766;52.260;20.746;2023-08-31T00:49:47;16.80;87.59
69546;SHT31;56766;52.260;20.746;2023-08-31T00:52:15;16.77;87.57
69546;SHT31;56766;52.260;20.746;2023-08-31T00:54:45;16.75;87.54
69546;SHT31;56766;52.260;20.746;2023-08-31T00:57:12;16.73;87.60
69546;SHT31;56766;52.260;20.746;2023-08-31T00:59:39;16.72;87.60
69546;SHT31;56766;52.260;20.746;2023-08-31T01:02:13;16.71;87.60
69546;SHT31;56766;52.260;20.746;2023-08-31T01:05:05;16.70;87.62
69546;SHT31;56766;52.260;20.746;2023-08-31T01:14:02;16.67;87.60
69546;SHT31;56766;52.260;20.746;2023-08-31T01:16:40;16.65;87.61
69546;SHT31;56766;52.260;20.746;2023-08-31T01:19:40;16.65;87.68
69546;SHT31;56766;52.260;20.746;2023-08-31T01:25:03;16.65;87.68
69546;SHT31;56766;52.260;20.746;2023-08-31T01:27:32;16.64;87.72
69546;SHT31;56766;52.260;20.746;2023-08-31T01:29:58;16.65;87.80
69546;SHT31;56766;52.260;20.746;2023-08-31T01:32:26;16.66;87.80
69546;SHT31;56766;52.260;20.746;2023-08-31T01:34:53;16.67;87.78
69546;SHT31;56766;52.260;20.746;2023-08-31T01:37:41;16.67;87.79
69546;SHT31;56766;52.260;20.746;2023-08-31T01:43:27;16.68;87.80
69546;SHT31;56766;52.260;20.746;2023-08-31T01:45:55;16.68;87.80
69546;SHT31;56766;52.260;20.746;2023-08-31T01:48:22;16.68;87.86
69546;SHT31;56766;52.260;20.746;2023-08-31T01:50:49;16.68;87.89
69546;SHT31;56766;52.260;20.746;2023-08-31T01:53:15;16.68;87.91
69546;SHT31;56766;52.260;20.746;2023-08-31T01:55:42;16.68;87.90
69546;SHT31;56766;52.260;20.746;2023-08-31T01:58:09;16.69;87.89
69546;SHT31;56766;52.260;20.746;2023-08-31T02:00:35;16.68;87.90
69546;SHT31;56766;52.260;20.746;2023-08-31T02:03:04;16.68;87.82
69546;SHT31;56766;52.260;20.746;2023-08-31T02:05:32;16.68;87.90
69546;SHT31;56766;52.260;20.746;2023-08-31T02:07:59;16.67;87.92
69546;SHT31;56766;52.260;20.746;2023-08-31T02:10:25;16.68;87.95
69546;SHT31;56766;52.260;20.746;2023-08-31T02:12:53;16.68;87.90
69546;SHT31;56766;52.260;20.746;2023-08-31T02:15:20;16.66;87.86
69546;SHT31;56766;52.260;20.746;2023-08-31T02:17:46;16.65;87.89
69546;SHT31;56766;52.260;20.746;2023-08-31T02:20:13;16.63;87.92
69546;SHT31;56766;52.260;20.746;2023-08-31T02:22:40;16.64;88.00
69546;SHT31;56766;52.260;20.746;2023-08-31T02:25:07;16.63;87.92
69546;SHT31;56766;52.260;20.746;2023-08-31T02:27:34;16.61;87.90
69546;SHT31;56766;52.260;20.746;2023-08-31T02:30:01;16.62;87.94
69546;SHT31;56766;52.260;20.746;2023-08-31T02:32:29;16.61;87.92
69546;SHT31;56766;52.260;20.746;2023-08-31T02:34:56;16.61;87.96
69546;SHT31;56766;52.260;20.746;2023-08-31T02:37:22;16.61;87.99
69546;SHT31;56766;52.260;20.746;2023-08-31T02:39:49;16.62;87.95
69546;SHT31;56766;52.260;20.746;2023-08-31T02:42:15;16.61;88.01
69546;SHT31;56766;52.260;20.746;2023-08-31T02:44:42;16.61;88.00
69546;SHT31;56766;52.260;20.746;2023-08-31T02:47:08;16.59;88.00
69546;SHT31;56766;52.260;20.746;2023-08-31T02:49:35;16.58;88.00
69546;SHT31;56766;52.260;20.746;2023-08-31T02:52:02;16.57;88.00
69546;SHT31;56766;52.260;20.746;2023-08-31T02:54:29;16.55;87.97
69546;SHT31;56766;52.260;20.746;2023-08-31T02:56:55;16.53;87.95
69546;SHT31;56766;52.260;20.746;2023-08-31T02:59:22;16.51;87.97
69546;SHT31;56766;52.260;20.746;2023-08-31T03:01:48;16.51;88.04
69546;SHT31;56766;52.260;20.746;2023-08-31T03:04:15;16.50;88.03
69546;SHT31;56766;52.260;20.746;2023-08-31T03:06:43;16.48;88.01
69546;SHT31;56766;52.260;20.746;2023-08-31T03:09:11;16.47;88.00
69546;SHT31;56766;52.260;20.746;2023-08-31T03:11:38;16.47;88.02
69546;SHT31;56766;52.260;20.746;2023-08-31T03:14:04;16.46;87.99
69546;SHT31;56766;52.260;20.746;2023-08-31T03:16:31;16.47;87.99
69546;SHT31;56766;52.260;20.746;2023-08-31T03:18:58;16.46;87.98
69546;SHT31;56766;52.260;20.746;2023-08-31T03:21:24;16.45;87.95
69546;SHT31;56766;52.260;20.746;2023-08-31T03:23:51;16.45;87.98
69546;SHT31;56766;52.260;20.746;2023-08-31T03:26:18;16.46;87.98
69546;SHT31;56766;52.260;20.746;2023-08-31T03:28:44;16.46;88.01
69546;SHT31;56766;52.260;20.746;2023-08-31T03:31:11;16.45;87.87
69546;SHT31;56766;52.260;20.746;2023-08-31T03:33:38;16.43;87.85
69546;SHT31;56766;52.260;20.746;2023-08-31T03:36:04;16.42;87.78
69546;SHT31;56766;52.260;20.746;2023-08-31T03:38:32;16.42;87.78
69546;SHT31;56766;52.260;20.746;2023-08-31T03:41:03;16.39;87.80
69546;SHT31;56766;52.260;20.746;2023-08-31T03:43:31;16.41;87.81
69546;SHT31;56766;52.260;20.746;2023-08-31T03:45:59;16.41;87.74
69546;SHT31;56766;52.260;20.746;2023-08-31T03:48:26;16.39;87.75
69546;SHT31;56766;52.260;20.746;2023-08-31T03:50:54;16.39;87.76
69546;SHT31;56766;52.260;20.746;2023-08-31T03:53:22;16.39;87.70
69546;SHT31;56766;52.260;20.746;2023-08-31T03:55:49;16.39;87.68
69546;SHT31;56766;52.260;20.746;2023-08-31T03:58:15;16.39;87.57
69546;SHT31;56766;52.260;20.746;2023-08-31T04:00:42;16.39;87.65
69546;SHT31;56766;52.260;20.746;2023-08-31T04:03:09;16.40;87.77
69546;SHT31;56766;52.260;20.746;2023-08-31T04:05:36;16.41;87.58
69546;SHT31;56766;52.260;20.746;2023-08-31T04:08:03;16.40;87.43
69546;SHT31;56766;52.260;20.746;2023-08-31T04:10:30;16.41;87.43
69546;SHT31;56766;52.260;20.746;2023-08-31T04:12:58;16.41;87.25
69546;SHT31;56766;52.260;20.746;2023-08-31T04:15:25;16.42;87.14
69546;SHT31;56766;52.260;20.746;2023-08-31T04:17:51;16.44;87.14
69546;SHT31;56766;52.260;20.746;2023-08-31T04:20:18;16.47;87.05
69546;SHT31;56766;52.260;20.746;2023-08-31T04:22:45;16.51;86.84
69546;SHT31;56766;52.260;20.746;2023-08-31T04:25:11;16.53;86.80
69546;SHT31;56766;52.260;20.746;2023-08-31T04:27:38;16.56;86.70
69546;SHT31;56766;52.260;20.746;2023-08-31T04:30:06;16.58;86.60
69546;SHT31;56766;52.260;20.746;2023-08-31T04:32:34;16.58;86.39
69546;SHT31;56766;52.260;20.746;2023-08-31T04:35:05;16.59;86.37
69546;SHT31;56766;52.260;20.746;2023-08-31T04:37:33;16.58;86.25
69546;SHT31;56766;52.260;20.746;2023-08-31T04:40:00;16.61;86.27
69546;SHT31;56766;52.260;20.746;2023-08-31T04:42:26;16.62;86.20
69546;SHT31;56766;52.260;20.746;2023-08-31T04:44:54;16.64;86.01
69546;SHT31;56766;52.260;20.746;2023-08-31T04:47:21;16.67;85.99
69546;SHT31;56766;52.260;20.746;2023-08-31T04:49:47;16.68;85.83
69546;SHT31;56766;52.260;20.746;2023-08-31T04:52:14;16.65;85.52
69546;SHT31;56766;52.260;20.746;2023-08-31T04:54:41;16.61;85.43
69546;SHT31;56766;52.260;20.746;2023-08-31T04:57:07;16.61;85.43
69546;SHT31;56766;52.260;20.746;2023-08-31T04:59:34;16.61;85.47
69546;SHT31;56766;52.260;20.746;2023-08-31T05:02:01;16.61;85.47
69546;SHT31;56766;52.260;20.746;2023-08-31T05:04:28;16.61;85.26
69546;SHT31;56766;52.260;20.746;2023-08-31T05:06:55;16.63;85.17
69546;SHT31;56766;52.260;20.746;2023-08-31T05:09:24;16.67;84.99
69546;SHT31;56766;52.260;20.746;2023-08-31T05:11:51;16.73;84.79
69546;SHT31;56766;52.260;20.746;2023-08-31T05:14:18;16.75;84.55
69546;SHT31;56766;52.260;20.746;2023-08-31T05:16:44;16.78;84.57
69546;SHT31;56766;52.260;20.746;2023-08-31T05:19:11;16.82;84.61
69546;SHT31;56766;52.260;20.746;2023-08-31T05:21:38;16.88;84.66
69546;SHT31;56766;52.260;20.746;2023-08-31T05:24:05;16.94;84.28
69546;SHT31;56766;52.260;20.746;2023-08-31T05:26:32;17.00;84.12
69546;SHT31;56766;52.260;20.746;2023-08-31T05:28:58;17.05;83.84
69546;SHT31;56766;52.260;20.746;2023-08-31T05:31:25;17.11;83.85
69546;SHT31;56766;52.260;20.746;2023-08-31T05:33:52;17.19;83.52
69546;SHT31;56766;52.260;20.746;2023-08-31T05:36:19;17.23;83.42
69546;SHT31;56766;52.260;20.746;2023-08-31T05:38:45;17.32;83.43
69546;SHT31;56766;52.260;20.746;2023-08-31T05:41:12;17.44;83.19
69546;SHT31;56766;52.260;20.746;2023-08-31T05:43:38;17.54;82.70
69546;SHT31;56766;52.260;20.746;2023-08-31T05:46:07;17.58;82.36
69546;SHT31;56766;52.260;20.746;2023-08-31T05:48:35;17.64;82.19
69546;SHT31;56766;52.260;20.746;2023-08-31T05:51:03;17.67;81.81
69546;SHT31;56766;52.260;20.746;2023-08-31T05:53:31;17.72;81.56
69546;SHT31;56766;52.260;20.746;2023-08-31T05:55:58;17.79;81.53
69546;SHT31;56766;52.260;20.746;2023-08-31T05:58:34;17.93;81.66
69546;SHT31;56766;52.260;20.746;2023-08-31T06:01:05;18.07;81.56
69546;SHT31;56766;52.260;20.746;2023-08-31T06:03:33;18.16;80.94
69546;SHT31;56766;52.260;20.746;2023-08-31T06:06:02;18.20;80.27
69546;SHT31;56766;52.260;20.746;2023-08-31T06:08:29;18.26;80.15
69546;SHT31;56766;52.260;20.746;2023-08-31T06:10:56;18.35;80.19
69546;SHT31;56766;52.260;20.746;2023-08-31T06:13:23;18.38;79.91
69546;SHT31;56766;52.260;20.746;2023-08-31T06:15:50;18.42;79.36
69546;SHT31;56766;52.260;20.746;2023-08-31T06:18:17;18.45;79.65
69546;SHT31;56766;52.260;20.746;2023-08-31T06:20:44;18.50;78.63
69546;SHT31;56766;52.260;20.746;2023-08-31T06:23:10;18.47;78.69
69546;SHT31;56766;52.260;20.746;2023-08-31T06:25:38;18.54;79.11
69546;SHT31;56766;52.260;20.746;2023-08-31T06:28:05;18.62;78.66
69546;SHT31;56766;52.260;20.746;2023-08-31T06:30:35;18.69;78.29
69546;SHT31;56766;52.260;20.746;2023-08-31T06:33:03;18.75;77.84
69546;SHT31;56766;52.260;20.746;2023-08-31T06:35:30;18.80;78.22
69546;SHT31;56766;52.260;20.746;2023-08-31T06:37:57;18.87;78.20
69546;SHT31;56766;52.260;20.746;2023-08-31T06:40:24;18.91;77.70
69546;SHT31;56766;52.260;20.746;2023-08-31T06:42:51;19.00;77.90
69546;SHT31;56766;52.260;20.746;2023-08-31T06:45:18;19.16;77.97
69546;SHT31;56766;52.260;20.746;2023-08-31T06:47:44;19.33;77.72
69546;SHT31;56766;52.260;20.746;2023-08-31T06:50:11;19.47;77.54
69546;SHT31;56766;52.260;20.746;2023-08-31T06:52:38;19.59;77.60
69546;SHT31;56766;52.260;20.746;2023-08-31T06:55:05;19.73;77.37
69546;SHT31;56766;52.260;20.746;2023-08-31T06:57:32;19.82;76.54
69546;SHT31;56766;52.260;20.746;2023-08-31T07:00:00;19.93;77.33
69546;SHT31;56766;52.260;20.746;2023-08-31T07:02:27;20.15;77.06
69546;SHT31;56766;52.260;20.746;2023-08-31T07:04:54;20.31;76.63
69546;SHT31;56766;52.260;20.746;2023-08-31T07:07:21;20.50;76.46
69546;SHT31;56766;52.260;20.746;2023-08-31T07:09:47;20.73;75.20
69546;SHT31;56766;52.260;20.746;2023-08-31T07:12:17;20.92;74.78
69546;SHT31;56766;52.260;20.746;2023-08-31T07:14:44;21.07;74.39
69546;SHT31;56766;52.260;20.746;2023-08-31T07:17:10;21.13;73.69
69546;SHT31;56766;52.260;20.746;2023-08-31T07:19:37;21.11;73.73
69546;SHT31;56766;52.260;20.746;2023-08-31T07:22:04;21.07;72.84
69546;SHT31;56766;52.260;20.746;2023-08-31T07:24:32;21.03;73.57
69546;SHT31;56766;52.260;20.746;2023-08-31T07:27:02;21.08;74.14
69546;SHT31;56766;52.260;20.746;2023-08-31T07:29:30;21.09;72.99
69546;SHT31;56766;52.260;20.746;2023-08-31T07:31:57;21.09;72.12
69546;SHT31;56766;52.260;20.746;2023-08-31T07:34:24;21.15;71.96
69546;SHT31;56766;52.260;20.746;2023-08-31T07:36:51;21.36;72.06
69546;SHT31;56766;52.260;20.746;2023-08-31T07:39:17;21.53;71.01
69546;SHT31;56766;52.260;20.746;2023-08-31T07:41:44;21.68;70.67
69546;SHT31;56766;52.260;20.746;2023-08-31T07:44:11;21.91;71.56
69546;SHT31;56766;52.260;20.746;2023-08-31T07:46:38;22.19;71.64
69546;SHT31;56766;52.260;20.746;2023-08-31T07:49:04;22.43;70.63
69546;SHT31;56766;52.260;20.746;2023-08-31T07:51:31;22.61;70.36
69546;SHT31;56766;52.260;20.746;2023-08-31T07:53:59;22.83;69.11
69546;SHT31;56766;52.260;20.746;2023-08-31T07:56:27;23.03;68.25
69546;SHT31;56766;52.260;20.746;2023-08-31T07:58:54;23.22;67.45
69546;SHT31;56766;52.260;20.746;2023-08-31T08:01:20;23.30;66.47
69546;SHT31;56766;52.260;20.746;2023-08-31T08:03:47;23.30;66.11
69546;SHT31;56766;52.260;20.746;2023-08-31T08:06:14;23.20;64.06
69546;SHT31;56766;52.260;20.746;2023-08-31T08:08:41;22.95;64.10
69546;SHT31;56766;52.260;20.746;2023-08-31T08:11:07;22.92;65.86
69546;SHT31;56766;52.260;20.746;2023-08-31T08:13:34;22.96;65.17
69546;SHT31;56766;52.260;20.746;2023-08-31T08:16:01;22.87;64.97
69546;SHT31;56766;52.260;20.746;2023-08-31T08:18:28;22.87;64.23
69546;SHT31;56766;52.260;20.746;2023-08-31T08:20:56;22.80;64.34
69546;SHT31;56766;52.260;20.746;2023-08-31T08:23:23;22.79;64.25
69546;SHT31;56766;52.260;20.746;2023-08-31T08:25:50;22.73;63.53
69546;SHT31;56766;52.260;20.746;2023-08-31T08:28:17;22.67;63.27
69546;SHT31;56766;52.260;20.746;2023-08-31T08:30:43;22.67;63.44
69546;SHT31;56766;52.260;20.746;2023-08-31T08:33:10;22.77;63.95
69546;SHT31;56766;52.260;20.746;2023-08-31T08:35:37;22.90;64.18
69546;SHT31;56766;52.260;20.746;2023-08-31T08:38:05;23.15;64.93
69546;SHT31;56766;52.260;20.746;2023-08-31T08:40:32;23.43;64.63
69546;SHT31;56766;52.260;20.746;2023-08-31T08:43:06;23.59;62.79
69546;SHT31;56766;52.260;20.746;2023-08-31T08:45:38;23.71;63.80
69546;SHT31;56766;52.260;20.746;2023-08-31T08:48:08;23.91;63.40
69546;SHT31;56766;52.260;20.746;2023-08-31T08:50:36;24.04;62.83
69546;SHT31;56766;52.260;20.746;2023-08-31T08:53:05;24.20;63.20
69546;SHT31;56766;52.260;20.746;2023-08-31T08:55:33;24.34;63.33
69546;SHT31;56766;52.260;20.746;2023-08-31T08:58:00;24.48;62.28
69546;SHT31;56766;52.260;20.746;2023-08-31T09:00:27;24.56;61.39
69546;SHT31;56766;52.260;20.746;2023-08-31T09:02:54;24.54;59.92
69546;SHT31;56766;52.260;20.746;2023-08-31T09:05:22;24.54;60.19
69546;SHT31;56766;52.260;20.746;2023-08-31T09:08:15;24.69;61.19
69546;SHT31;56766;52.260;20.746;2023-08-31T09:10:43;24.87;60.70
69546;SHT31;56766;52.260;20.746;2023-08-31T09:13:13;24.90;59.56
69546;SHT31;56766;52.260;20.746;2023-08-31T09:15:48;24.76;58.51
69546;SHT31;56766;52.260;20.746;2023-08-31T09:18:30;24.69;59.86
69546;SHT31;56766;52.260;20.746;2023-08-31T09:21:00;24.73;59.77
69546;SHT31;56766;52.260;20.746;2023-08-31T09:23:28;24.73;58.91
69546;SHT31;56766;52.260;20.746;2023-08-31T09:25:56;24.86;59.62
69546;SHT31;56766;52.260;20.746;2023-08-31T09:28:26;25.01;58.76
69546;SHT31;56766;52.260;20.746;2023-08-31T09:31:07;25.16;59.13
69546;SHT31;56766;52.260;20.746;2023-08-31T09:33:35;25.40;59.43
69546;SHT31;56766;52.260;20.746;2023-08-31T09:36:06;25.54;58.30
69546;SHT31;56766;52.260;20.746;2023-08-31T09:38:44;25.47;57.79
69546;SHT31;56766;52.260;20.746;2023-08-31T09:41:13;25.20;56.66
69546;SHT31;56766;52.260;20.746;2023-08-31T09:43:42;25.03;57.91
69546;SHT31;56766;52.260;20.746;2023-08-31T09:46:11;24.93;57.76
69546;SHT31;56766;52.260;20.746;2023-08-31T09:48:40;24.83;58.17
69546;SHT31;56766;52.260;20.746;2023-08-31T09:51:10;24.87;58.16
69546;SHT31;56766;52.260;20.746;2023-08-31T09:53:37;24.91;56.66
69546;SHT31;56766;52.260;20.746;2023-08-31T09:56:05;24.91;57.18
69546;SHT31;56766;52.260;20.746;2023-08-31T09:58:33;24.98;57.13
69546;SHT31;56766;52.260;20.746;2023-08-31T10:01:01;25.00;56.87
69546;SHT31;56766;52.260;20.746;2023-08-31T10:03:29;24.98;56.07
69546;SHT31;56766;52.260;20.746;2023-08-31T10:05:57;25.06;56.83
69546;SHT31;56766;52.260;20.746;2023-08-31T10:08:27;25.30;56.56
69546;SHT31;56766;52.260;20.746;2023-08-31T10:11:01;25.44;56.11
69546;SHT31;56766;52.260;20.746;2023-08-31T10:13:32;25.51;55.60
69546;SHT31;56766;52.260;20.746;2023-08-31T10:16:04;25.44;55.11
69546;SHT31;56766;52.260;20.746;2023-08-31T10:18:34;25.36;56.48
69546;SHT31;56766;52.260;20.746;2023-08-31T10:21:02;25.34;56.32
69546;SHT31;56766;52.260;20.746;2023-08-31T10:23:30;25.31;56.77
69546;SHT31;56766;52.260;20.746;2023-08-31T10:28:26;25.14;55.35
69546;SHT31;56766;52.260;20.746;2023-08-31T10:31:08;24.95;55.09
69546;SHT31;56766;52.260;20.746;2023-08-31T10:33:45;24.82;55.13
69546;SHT31;56766;52.260;20.746;2023-08-31T10:36:37;24.92;56.40
69546;SHT31;56766;52.260;20.746;2023-08-31T10:39:14;25.51;57.24
69546;SHT31;56766;52.260;20.746;2023-08-31T10:41:52;25.84;56.39
69546;SHT31;56766;52.260;20.746;2023-08-31T10:44:30;25.84;55.63
69546;SHT31;56766;52.260;20.746;2023-08-31T10:47:05;25.77;54.80
69546;SHT31;56766;52.260;20.746;2023-08-31T10:49:35;25.59;55.01
69546;SHT31;56766;52.260;20.746;2023-08-31T10:52:18;25.52;55.74
69546;SHT31;56766;52.260;20.746;2023-08-31T10:54:46;25.53;55.32
69546;SHT31;56766;52.260;20.746;2023-08-31T10:57:14;25.61;55.15
69546;SHT31;56766;52.260;20.746;2023-08-31T11:05:12;26.17;54.32
69546;SHT31;56766;52.260;20.746;2023-08-31T11:07:45;26.39;54.95
69546;SHT31;56766;52.260;20.746;2023-08-31T11:10:24;26.68;54.89
69546;SHT31;56766;52.260;20.746;2023-08-31T11:12:54;26.73;54.01
69546;SHT31;56766;52.260;20.746;2023-08-31T11:15:26;26.74;54.17
69546;SHT31;56766;52.260;20.746;2023-08-31T11:17:54;26.83;53.93
69546;SHT31;56766;52.260;20.746;2023-08-31T11:20:24;26.77;52.68
69546;SHT31;56766;52.260;20.746;2023-08-31T11:22:54;26.69;53.50
69546;SHT31;56766;52.260;20.746;2023-08-31T11:25:21;26.53;53.66
69546;SHT31;56766;52.260;20.746;2023-08-31T11:27:55;26.34;53.34
69546;SHT31;56766;52.260;20.746;2023-08-31T11:30:35;26.27;53.02
69546;SHT31;56766;52.260;20.746;2023-08-31T11:33:05;26.46;53.84
69546;SHT31;56766;52.260;20.746;2023-08-31T11:35:35;26.43;53.51
69546;SHT31;56766;52.260;20.746;2023-08-31T11:38:03;26.40;52.43
69546;SHT31;56766;52.260;20.746;2023-08-31T11:40:30;26.59;53.72
69546;SHT31;56766;52.260;20.746;2023-08-31T11:42:58;26.89;53.72
69546;SHT31;56766;52.260;20.746;2023-08-31T11:45:30;27.14;53.00
69546;SHT31;56766;52.260;20.746;2023-08-31T11:47:59;27.21;52.47
69546;SHT31;56766;52.260;20.746;2023-08-31T11:50:27;27.30;53.14
69546;SHT31;56766;52.260;20.746;2023-08-31T11:52:55;27.32;52.53
69546;SHT31;56766;52.260;20.746;2023-08-31T11:55:21;27.30;52.37
69546;SHT31;56766;52.260;20.746;2023-08-31T11:57:51;27.22;52.35
69546;SHT31;56766;52.260;20.746;2023-08-31T12:00:21;27.31;53.06
69546;SHT31;56766;52.260;20.746;2023-08-31T12:02:59;27.59;53.28
69546;SHT31;56766;52.260;20.746;2023-08-31T12:05:29;27.89;52.63
69546;SHT31;56766;52.260;20.746;2023-08-31T12:07:57;28.07;52.36
69546;SHT31;56766;52.260;20.746;2023-08-31T12:10:25;28.23;51.69
69546;SHT31;56766;52.260;20.746;2023-08-31T12:12:53;28.16;51.43
69546;SHT31;56766;52.260;20.746;2023-08-31T12:15:22;28.04;51.04
69546;SHT31;56766;52.260;20.746;2023-08-31T12:17:49;27.72;51.13
69546;SHT31;56766;52.260;20.746;2023-08-31T12:20:25;27.53;51.03
69546;SHT31;56766;52.260;20.746;2023-08-31T12:22:53;27.44;51.37
69546;SHT31;56766;52.260;20.746;2023-08-31T12:25:21;27.34;51.24
69546;SHT31;56766;52.260;20.746;2023-08-31T12:27:48;27.24;51.64
69546;SHT31;56766;52.260;20.746;2023-08-31T12:30:17;27.21;52.36
69546;SHT31;56766;52.260;20.746;2023-08-31T12:32:43;27.25;52.65
69546;SHT31;56766;52.260;20.746;2023-08-31T12:35:10;27.45;52.43
69546;SHT31;56766;52.260;20.746;2023-08-31T12:37:38;27.67;52.70
69546;SHT31;56766;52.260;20.746;2023-08-31T12:40:05;27.77;52.00
69546;SHT31;56766;52.260;20.746;2023-08-31T12:42:33;27.76;51.40
69546;SHT31;56766;52.260;20.746;2023-08-31T12:45:00;27.74;51.35
69546;SHT31;56766;52.260;20.746;2023-08-31T12:47:27;27.66;50.93
69546;SHT31;56766;52.260;20.746;2023-08-31T12:49:54;27.59;52.13
69546;SHT31;56766;52.260;20.746;2023-08-31T12:52:20;27.60;51.93
69546;SHT31;56766;52.260;20.746;2023-08-31T12:54:47;27.56;51.78
69546;SHT31;56766;52.260;20.746;2023-08-31T12:57:14;27.52;51.51
69546;SHT31;56766;52.260;20.746;2023-08-31T12:59:41;27.43;49.87
69546;SHT31;56766;52.260;20.746;2023-08-31T13:02:08;27.42;50.52
69546;SHT31;56766;52.260;20.746;2023-08-31T13:04:38;27.34;51.29
69546;SHT31;56766;52.260;20.746;2023-08-31T13:07:05;27.22;50.99
69546;SHT31;56766;52.260;20.746;2023-08-31T13:09:32;27.04;50.94
69546;SHT31;56766;52.260;20.746;2023-08-31T13:11:59;26.82;50.90
69546;SHT31;56766;52.260;20.746;2023-08-31T13:14:26;26.70;51.46
69546;SHT31;56766;52.260;20.746;2023-08-31T13:16:52;26.75;51.76
69546;SHT31;56766;52.260;20.746;2023-08-31T13:19:19;26.86;52.22
69546;SHT31;56766;52.260;20.746;2023-08-31T13:21:46;26.87;52.07
69546;SHT31;56766;52.260;20.746;2023-08-31T13:24:13;26.67;51.98
69546;SHT31;56766;52.260;20.746;2023-08-31T13:26:41;26.41;52.53
69546;SHT31;56766;52.260;20.746;2023-08-31T13:29:14;26.16;53.02
69546;SHT31;56766;52.260;20.746;2023-08-31T13:31:41;25.82;52.51
69546;SHT31;56766;52.260;20.746;2023-08-31T13:34:08;25.49;53.21
69546;SHT31;56766;52.260;20.746;2023-08-31T13:36:35;25.20;53.98
69546;SHT31;56766;52.260;20.746;2023-08-31T13:39:02;24.76;55.81
69546;SHT31;56766;52.260;20.746;2023-08-31T13:41:30;23.75;58.17
69546;SHT31;56766;52.260;20.746;2023-08-31T13:43:57;22.55;60.75
69546;SHT31;56766;52.260;20.746;2023-08-31T13:46:24;21.69;63.10
69546;SHT31;56766;52.260;20.746;2023-08-31T13:48:52;21.02;64.80
69546;SHT31;56766;52.260;20.746;2023-08-31T13:51:20;20.44;66.52
69546;SHT31;56766;52.260;20.746;2023-08-31T13:53:46;19.96;67.72
69546;SHT31;56766;52.260;20.746;2023-08-31T13:56:14;19.56;68.60
69546;SHT31;56766;52.260;20.746;2023-08-31T13:58:42;19.29;69.62
69546;SHT31;56766;52.260;20.746;2023-08-31T14:01:10;19.00;69.72
69546;SHT31;56766;52.260;20.746;2023-08-31T14:03:37;18.73;70.57
69546;SHT31;56766;52.260;20.746;2023-08-31T14:06:04;18.54;71.15
69546;SHT31;56766;52.260;20.746;2023-08-31T14:08:32;18.43;72.04
69546;SHT31;56766;52.260;20.746;2023-08-31T14:10:59;18.38;73.28
69546;SHT31;56766;52.260;20.746;2023-08-31T14:13:26;18.37;73.88
69546;SHT31;56766;52.260;20.746;2023-08-31T14:15:54;18.33;73.67
69546;SHT31;56766;52.260;20.746;2023-08-31T14:18:21;18.26;74.15
69546;SHT31;56766;52.260;20.746;2023-08-31T14:20:48;18.24;74.82
69546;SHT31;56766;52.260;20.746;2023-08-31T14:23:15;18.28;75.97
69546;SHT31;56766;52.260;20.746;2023-08-31T14:25:42;18.32;76.00
69546;SHT31;56766;52.260;20.746;2023-08-31T14:28:09;18.32;75.85
69546;SHT31;56766;52.260;20.746;2023-08-31T14:30:36;18.26;75.92
69546;SHT31;56766;52.260;20.746;2023-08-31T14:33:04;18.21;76.33
69546;SHT31;56766;52.260;20.746;2023-08-31T14:35:31;18.20;76.89
69546;SHT31;56766;52.260;20.746;2023-08-31T14:37:59;18.25;77.06
69546;SHT31;56766;52.260;20.746;2023-08-31T14:40:25;18.32;77.44
69546;SHT31;56766;52.260;20.746;2023-08-31T14:42:52;18.42;77.82
69546;SHT31;56766;52.260;20.746;2023-08-31T14:45:19;18.53;77.86
69546;SHT31;56766;52.260;20.746;2023-08-31T14:47:45;18.63;77.99
69546;SHT31;56766;52.260;20.746;2023-08-31T14:50:12;18.70;78.07
69546;SHT31;56766;52.260;20.746;2023-08-31T14:52:39;18.80;78.18
69546;SHT31;56766;52.260;20.746;2023-08-31T14:55:06;18.89;78.24
69546;SHT31;56766;52.260;20.746;2023-08-31T14:57:33;18.94;78.21
69546;SHT31;56766;52.260;20.746;2023-08-31T15:00:01;18.97;78.13
69546;SHT31;56766;52.260;20.746;2023-08-31T15:02:31;19.03;78.19
69546;SHT31;56766;52.260;20.746;2023-08-31T15:04:58;19.07;78.04
69546;SHT31;56766;52.260;20.746;2023-08-31T15:07:24;19.12;78.25
69546;SHT31;56766;52.260;20.746;2023-08-31T15:09:52;19.23;78.35
69546;SHT31;56766;52.260;20.746;2023-08-31T15:12:19;19.36;78.53
69546;SHT31;56766;52.260;20.746;2023-08-31T15:14:47;19.45;78.43
69546;SHT31;56766;52.260;20.746;2023-08-31T15:17:13;19.49;78.21
69546;SHT31;56766;52.260;20.746;2023-08-31T15:19:40;19.51;78.17
69546;SHT31;56766;52.260;20.746;2023-08-31T15:22:07;19.53;78.12
69546;SHT31;56766;52.260;20.746;2023-08-31T15:24:33;19.53;78.29
69546;SHT31;56766;52.260;20.746;2023-08-31T15:27:00;19.52;78.34
69546;SHT31;56766;52.260;20.746;2023-08-31T15:29:27;19.58;78.52
69546;SHT31;56766;52.260;20.746;2023-08-31T15:31:54;19.66;78.66
69546;SHT31;56766;52.260;20.746;2023-08-31T15:34:21;19.77;78.66
69546;SHT31;56766;52.260;20.746;2023-08-31T15:36:48;19.85;78.72
69546;SHT31;56766;52.260;20.746;2023-08-31T15:39:15;19.96;78.70
69546;SHT31;56766;52.260;20.746;2023-08-31T15:41:42;20.01;78.51